Time;durP1;ratioP1;P1;durP2;ratioP2;P2;SDS_P1;SDS_P2;PMS_P1;PMS_P2;Temp;Humidity;BMP_temperature;BMP_pressure;BME280_temperature;BME280_humidity;BME280_pressure;Samples;Min_cycle;Max_cycle;Signal;HPM_P1;HPM_P2
2022/07/03 00:01:34;;;;;;;2.97;2.10;;;;;;;;;;5034069;28;20413;-74
2022/07/03 00:04:00;;;;;;;3.83;1.93;;;;;;;;;;5033596;28;20380;-74
2022/07/03 00:06:27;;;;;;;3.13;1.80;;;;;;;;;;5033811;28;20404;-75
2022/07/03 00:08:53;;;;;;;2.60;2.13;;;;;;;;;;5033780;28;20906;-74
2022/07/03 00:11:19;;;;;;;4.80;2.57;;;;;;;;;;5033487;28;20419;-75
2022/07/03 00:13:45;;;;;;;4.30;2.27;;;;;;;;;;5033625;28;20403;-74
2022/07/03 00:16:11;;;;;;;3.30;2.33;;;;;;;;;;5033610;28;20429;-75
2022/07/03 00:18:37;;;;;;;4.63;2.33;;;;;;;;;;5032341;28;20388;-75
2022/07/03 00:21:04;;;;;;;4.73;2.40;;;;;;;;;;5032395;28;20384;-75
2022/07/03 00:23:35;;;;;;;2.97;2.50;;;;;;;;;;5033189;28;20421;-75
2022/07/03 00:26:02;;;;;;;9.13;2.63;;;;;;;;;;5033703;28;20421;-75
2022/07/03 00:28:29;;;;;;;6.13;2.30;;;;;;;;;;5033495;28;20410;-75
2022/07/03 00:30:55;;;;;;;3.93;2.13;;;;;;;;;;5033512;28;20748;-74
2022/07/03 00:33:22;;;;;;;4.90;2.37;;;;;;;;;;5032855;28;20455;-75
2022/07/03 00:35:50;;;;;;;3.27;1.90;;;;;;;;;;5033163;28;20970;-75
2022/07/03 00:38:16;;;;;;;3.30;2.03;;;;;;;;;;5033256;28;20384;-75
2022/07/03 00:40:43;;;;;;;3.20;1.73;;;;;;;;;;5033282;28;20815;-75
2022/07/03 00:43:10;;;;;;;4.70;1.90;;;;;;;;;;5032852;28;20756;-75
2022/07/03 00:45:37;;;;;;;3.63;1.60;;;;;;;;;;5032963;28;20433;-75
2022/07/03 00:48:05;;;;;;;1.87;1.50;;;;;;;;;;5031904;28;20934;-75
2022/07/03 00:50:34;;;;;;;3.73;2.50;;;;;;;;;;5032825;28;20396;-75
2022/07/03 00:53:01;;;;;;;9.00;2.17;;;;;;;;;;5032814;28;20563;-75
2022/07/03 00:55:27;;;;;;;4.73;2.37;;;;;;;;;;5032952;28;20435;-75
2022/07/03 00:57:55;;;;;;;2.93;2.23;;;;;;;;;;5032903;28;20388;-75
2022/07/03 01:00:21;;;;;;;3.50;1.93;;;;;;;;;;5031732;28;20409;-75
2022/07/03 01:03:01;;;;;;;4.27;2.10;;;;;;;;;;5032676;28;20419;-75
2022/07/03 01:05:30;;;;;;;2.53;2.30;;;;;;;;;;5032866;28;20439;-75
2022/07/03 01:08:12;;;;;;;6.60;2.10;;;;;;;;;;5032811;28;20413;-75
2022/07/03 01:10:45;;;;;;;3.20;2.13;;;;;;;;;;5031423;28;20985;-75
2022/07/03 01:13:17;;;;;;;4.60;2.07;;;;;;;;;;5032491;28;20888;-75
2022/07/03 01:15:59;;;;;;;5.80;2.30;;;;;;;;;;5031246;28;20765;-74
2022/07/03 01:18:37;;;;;;;4.00;1.93;;;;;;;;;;5031357;28;20388;-75
2022/07/03 01:21:08;;;;;;;3.03;2.30;;;;;;;;;;5032598;28;20888;-75
2022/07/03 01:23:57;;;;;;;3.87;2.40;;;;;;;;;;5032254;28;20421;-75
2022/07/03 01:26:25;;;;;;;4.80;1.93;;;;;;;;;;5032558;28;20400;-75
2022/07/03 01:28:51;;;;;;;4.00;2.10;;;;;;;;;;5032481;28;20858;-75
2022/07/03 01:31:22;;;;;;;3.83;1.93;;;;;;;;;;5032316;28;20471;-74
2022/07/03 01:33:51;;;;;;;3.70;2.13;;;;;;;;;;5030771;28;20764;-74
2022/07/03 01:36:18;;;;;;;4.57;2.37;;;;;;;;;;5031078;28;20465;-75
2022/07/03 01:38:45;;;;;;;5.77;1.93;;;;;;;;;;5032365;28;20395;-74
2022/07/03 01:41:11;;;;;;;4.50;2.33;;;;;;;;;;5031149;28;20475;-75
2022/07/03 01:43:53;;;;;;;7.13;2.20;;;;;;;;;;5031956;28;20392;-74
2022/07/03 01:46:21;;;;;;;2.97;2.30;;;;;;;;;;5032400;28;20404;-75
2022/07/03 01:48:47;;;;;;;4.30;2.00;;;;;;;;;;5032366;28;20437;-75
2022/07/03 01:51:14;;;;;;;4.23;2.20;;;;;;;;;;5032343;28;20418;-75
2022/07/03 01:53:44;;;;;;;4.47;2.00;;;;;;;;;;5032097;28;20890;-75
2022/07/03 01:56:11;;;;;;;4.17;2.70;;;;;;;;;;5030682;28;20965;-74
2022/07/03 01:58:37;;;;;;;3.80;1.80;;;;;;;;;;5032185;28;20427;-74
2022/07/03 02:01:05;;;;;;;3.40;1.80;;;;;;;;;;5032270;28;20413;-74
2022/07/03 02:03:32;;;;;;;2.77;1.97;;;;;;;;;;5033804;28;20413;-75
2022/07/03 02:06:10;;;;;;;4.50;2.23;;;;;;;;;;5035977;28;20441;-75
2022/07/03 02:08:36;;;;;;;2.27;1.90;;;;;;;;;;5036159;28;20395;-74
2022/07/03 02:11:10;;;;;;;9.43;2.33;;;;;;;;;;5035972;28;20475;-74
2022/07/03 02:13:45;;;;;;;5.50;2.00;;;;;;;;;;5035702;28;20467;-74
2022/07/03 02:16:13;;;;;;;4.40;2.00;;;;;;;;;;5035785;28;20429;-74
2022/07/03 02:18:40;;;;;;;3.70;1.80;;;;;;;;;;5035826;28;20449;-74
2022/07/03 02:21:12;;;;;;;3.27;1.87;;;;;;;;;;5034615;28;20397;-75
2022/07/03 02:23:43;;;;;;;3.50;2.00;;;;;;;;;;5035532;28;20463;-74
2022/07/03 02:26:12;;;;;;;2.93;2.00;;;;;;;;;;5035762;28;20429;-75
2022/07/03 02:28:58;;;;;;;4.03;2.10;;;;;;;;;;5034294;28;20452;-74
2022/07/03 02:31:25;;;;;;;3.90;2.17;;;;;;;;;;5035245;28;20440;-74
2022/07/03 02:33:56;;;;;;;8.27;2.77;;;;;;;;;;5035450;28;20391;-74
2022/07/03 02:36:23;;;;;;;6.20;2.30;;;;;;;;;;5035620;28;20402;-75
2022/07/03 02:38:52;;;;;;;10.23;3.10;;;;;;;;;;5035593;28;20413;-75
2022/07/03 02:41:24;;;;;;;4.27;2.40;;;;;;;;;;5035652;28;20488;-75
2022/07/03 02:44:05;;;;;;;2.70;2.10;;;;;;;;;;5035197;28;20406;-75
2022/07/03 02:46:50;;;;;;;4.57;1.93;;;;;;;;;;5035174;28;20494;-74
2022/07/03 02:49:25;;;;;;;4.63;2.40;;;;;;;;;;5035379;28;20419;-74
2022/07/03 02:51:57;;;;;;;4.37;2.00;;;;;;;;;;5035189;28;20559;-74
2022/07/03 02:54:24;;;;;;;2.57;2.10;;;;;;;;;;5035216;28;20404;-76
2022/07/03 02:57:09;;;;;;;3.80;2.37;;;;;;;;;;5035157;28;20425;-74
2022/07/03 02:59:55;;;;;;;3.07;2.10;;;;;;;;;;5035194;28;20738;-75
2022/07/03 03:02:39;;;;;;;3.70;1.80;;;;;;;;;;5034912;28;20380;-76
2022/07/03 03:05:14;;;;;;;2.80;1.87;;;;;;;;;;5034567;28;20404;-74
2022/07/03 03:07:46;;;;;;;5.00;2.53;;;;;;;;;;5034814;28;20405;-74
2022/07/03 03:10:14;;;;;;;4.77;2.50;;;;;;;;;;5034780;28;20464;-74
2022/07/03 03:12:41;;;;;;;3.93;2.23;;;;;;;;;;5034556;28;20445;-75
2022/07/03 03:15:11;;;;;;;4.07;2.67;;;;;;;;;;5034120;28;20429;-74
2022/07/03 03:17:48;;;;;;;5.13;2.17;;;;;;;;;;5034758;28;20406;-75
2022/07/03 03:20:16;;;;;;;2.97;2.03;;;;;;;;;;5034796;28;20466;-75
2022/07/03 03:22:47;;;;;;;2.37;1.70;;;;;;;;;;5034477;28;20401;-75
2022/07/03 03:25:13;;;;;;;5.77;2.03;;;;;;;;;;5034351;28;20400;-74
2022/07/03 03:27:40;;;;;;;4.40;2.03;;;;;;;;;;5034580;28;20385;-75
2022/07/03 03:30:06;;;;;;;2.20;2.00;;;;;;;;;;5034553;28;20400;-74
2022/07/03 03:32:34;;;;;;;5.63;2.13;;;;;;;;;;5034321;28;20867;-75
2022/07/03 03:35:01;;;;;;;3.87;1.80;;;;;;;;;;5034018;28;20407;-74
2022/07/03 03:37:27;;;;;;;3.27;2.17;;;;;;;;;;5034514;28;20788;-75
2022/07/03 03:39:53;;;;;;;4.47;2.33;;;;;;;;;;5034694;28;20433;-75
2022/07/03 03:42:19;;;;;;;3.40;2.00;;;;;;;;;;5034839;28;20799;-74
2022/07/03 03:44:45;;;;;;;7.40;2.17;;;;;;;;;;5033987;28;20419;-75
2022/07/03 03:47:11;;;;;;;3.90;2.40;;;;;;;;;;5032903;28;20406;-75
2022/07/03 03:49:37;;;;;;;4.23;2.40;;;;;;;;;;5034213;28;20421;-74
2022/07/03 03:52:03;;;;;;;3.53;2.30;;;;;;;;;;5034177;28;20859;-75
2022/07/03 03:54:29;;;;;;;2.37;1.77;;;;;;;;;;5032723;28;20418;-74
2022/07/03 03:56:55;;;;;;;3.67;1.70;;;;;;;;;;5034075;28;20749;-75
2022/07/03 03:59:22;;;;;;;2.00;1.80;;;;;;;;;;5032782;28;20380;-74
2022/07/03 04:01:48;;;;;;;4.07;2.03;;;;;;;;;;5033890;28;20810;-74
2022/07/03 04:04:17;;;;;;;2.80;1.97;;;;;;;;;;5032204;28;20948;-75
2022/07/03 04:06:44;;;;;;;2.70;1.80;;;;;;;;;;5033732;28;20433;-75
2022/07/03 04:09:09;;;;;;;2.37;2.10;;;;;;;;;;5033558;28;20397;-75
2022/07/03 04:11:35;;;;;;;8.40;2.20;;;;;;;;;;5033601;28;20448;-74
2022/07/03 04:14:01;;;;;;;2.50;1.90;;;;;;;;;;5033497;28;20394;-74
2022/07/03 04:16:28;;;;;;;3.97;2.17;;;;;;;;;;5033615;28;20405;-75
2022/07/03 04:18:54;;;;;;;3.50;2.50;;;;;;;;;;5033611;28;20460;-75
2022/07/03 04:21:20;;;;;;;4.33;1.87;;;;;;;;;;5033430;28;20438;-74
2022/07/03 04:23:46;;;;;;;14.33;2.17;;;;;;;;;;5031876;28;20902;-74
2022/07/03 04:26:12;;;;;;;4.90;1.87;;;;;;;;;;5032739;28;20433;-75
2022/07/03 04:28:38;;;;;;;4.33;2.07;;;;;;;;;;5033388;28;20428;-75
2022/07/03 04:31:04;;;;;;;4.70;1.90;;;;;;;;;;5033327;28;20499;-74
2022/07/03 04:33:30;;;;;;;4.60;2.23;;;;;;;;;;5033027;28;20472;-75
2022/07/03 04:35:56;;;;;;;5.50;1.60;;;;;;;;;;5033526;28;20475;-74
2022/07/03 04:38:22;;;;;;;5.03;2.47;;;;;;;;;;5033344;28;20476;-74
2022/07/03 04:40:48;;;;;;;2.20;2.00;;;;;;;;;;5033567;28;20413;-74
2022/07/03 04:43:16;;;;;;;2.20;1.80;;;;;;;;;;5031617;28;20399;-77
2022/07/03 04:45:42;;;;;;;3.33;2.37;;;;;;;;;;5031937;28;20448;-74
2022/07/03 04:48:08;;;;;;;5.03;2.50;;;;;;;;;;5033018;28;20421;-74
2022/07/03 04:50:34;;;;;;;3.33;2.03;;;;;;;;;;5033193;28;20384;-75
2022/07/03 04:53:00;;;;;;;4.33;2.43;;;;;;;;;;5032612;28;20589;-75
2022/07/03 04:55:26;;;;;;;5.17;2.30;;;;;;;;;;5032669;28;20499;-75
2022/07/03 04:57:52;;;;;;;5.77;2.40;;;;;;;;;;5032992;28;20517;-74
2022/07/03 05:00:18;;;;;;;2.13;1.90;;;;;;;;;;5032989;28;20754;-74
2022/07/03 05:02:44;;;;;;;3.87;2.30;;;;;;;;;;5032834;28;20467;-74
2022/07/03 05:05:10;;;;;;;3.77;2.03;;;;;;;;;;5031338;28;20404;-74
2022/07/03 05:07:36;;;;;;;2.13;1.90;;;;;;;;;;5032798;28;20467;-75
2022/07/03 05:10:02;;;;;;;4.80;2.40;;;;;;;;;;5032798;28;20479;-74
2022/07/03 05:12:28;;;;;;;4.00;2.00;;;;;;;;;;5032825;28;20563;-74
2022/07/03 05:14:54;;;;;;;3.70;1.83;;;;;;;;;;5032501;28;20408;-75
2022/07/03 05:17:20;;;;;;;2.73;2.13;;;;;;;;;;5031444;28;20488;-75
2022/07/03 05:19:46;;;;;;;4.60;2.70;;;;;;;;;;5031271;28;20451;-74
2022/07/03 05:22:12;;;;;;;4.00;1.87;;;;;;;;;;5032703;28;20494;-74
2022/07/03 05:24:38;;;;;;;4.30;2.43;;;;;;;;;;5032168;28;20522;-74
2022/07/03 05:27:04;;;;;;;3.73;1.97;;;;;;;;;;5032535;28;20866;-74
2022/07/03 05:29:30;;;;;;;4.30;2.20;;;;;;;;;;5032517;28;20449;-75
2022/07/03 05:31:56;;;;;;;4.70;2.10;;;;;;;;;;5032139;28;20544;-74
2022/07/03 05:34:22;;;;;;;5.70;2.50;;;;;;;;;;5032039;28;20409;-74
2022/07/03 05:36:48;;;;;;;4.10;2.10;;;;;;;;;;5033199;28;20429;-74
2022/07/03 05:39:37;;;;;;;3.10;2.27;;;;;;;;;;5036552;28;20379;-74
2022/07/03 05:42:01;;;;;;;8.83;2.53;;;;;;;;;;5036478;28;20440;-74
2022/07/03 05:44:27;;;;;;;4.87;2.30;;;;;;;;;;5035973;28;20421;-75
2022/07/03 05:46:53;;;;;;;5.13;2.30;;;;;;;;;;5036474;28;20432;-74
2022/07/03 05:49:19;;;;;;;3.53;1.97;;;;;;;;;;5036545;28;20818;-75
2022/07/03 05:51:45;;;;;;;9.10;2.40;;;;;;;;;;5035149;28;20464;-74
2022/07/03 05:54:11;;;;;;;5.57;2.90;;;;;;;;;;5036055;28;20783;-74
2022/07/03 05:56:37;;;;;;;6.50;2.33;;;;;;;;;;5036489;28;20400;-75
2022/07/03 05:59:03;;;;;;;7.40;3.17;;;;;;;;;;5035373;28;20492;-74
2022/07/03 06:01:29;;;;;;;6.03;2.63;;;;;;;;;;5036212;28;20463;-74
2022/07/03 06:03:55;;;;;;;5.27;2.40;;;;;;;;;;5035814;28;20425;-74
2022/07/03 06:06:21;;;;;;;5.80;2.73;;;;;;;;;;5034857;28;20416;-74
2022/07/03 06:08:47;;;;;;;9.20;2.90;;;;;;;;;;5036099;28;20489;-74
2022/07/03 06:11:13;;;;;;;8.00;3.10;;;;;;;;;;5035977;28;20388;-74
2022/07/03 06:13:39;;;;;;;10.33;2.97;;;;;;;;;;5035585;28;20406;-74
2022/07/03 06:16:05;;;;;;;6.87;2.70;;;;;;;;;;5035734;28;20937;-73
2022/07/03 06:18:31;;;;;;;11.87;3.00;;;;;;;;;;5018079;28;20433;-74
2022/07/03 06:20:57;;;;;;;8.03;2.63;;;;;;;;;;5034520;28;20387;-74
2022/07/03 06:23:23;;;;;;;11.20;2.73;;;;;;;;;;5035459;28;20424;-74
2022/07/03 06:25:49;;;;;;;9.03;2.93;;;;;;;;;;5035508;28;20412;-74
2022/07/03 06:28:15;;;;;;;10.17;2.80;;;;;;;;;;5035433;28;20388;-75
2022/07/03 06:30:41;;;;;;;6.10;2.73;;;;;;;;;;5035674;28;20463;-75
2022/07/03 06:33:07;;;;;;;3.17;2.00;;;;;;;;;;5035105;28;21014;-74
2022/07/03 06:35:33;;;;;;;5.20;2.67;;;;;;;;;;5035445;28;20392;-75
2022/07/03 06:38:02;;;;;;;13.83;2.63;;;;;;;;;;5035505;28;20384;-74
2022/07/03 06:40:28;;;;;;;6.50;2.40;;;;;;;;;;5035718;28;20416;-75
2022/07/03 06:42:55;;;;;;;8.07;2.97;;;;;;;;;;5035296;28;20409;-75
2022/07/03 06:45:20;;;;;;;14.00;3.00;;;;;;;;;;5035537;28;20408;-74
2022/07/03 06:47:46;;;;;;;2.20;2.00;;;;;;;;;;5035741;28;20458;-75
2022/07/03 06:50:12;;;;;;;11.57;2.87;;;;;;;;;;5034742;28;20407;-75
2022/07/03 06:52:38;;;;;;;5.10;2.90;;;;;;;;;;5035363;28;20461;-74
2022/07/03 06:55:05;;;;;;;7.40;3.60;;;;;;;;;;5034999;28;20421;-75
2022/07/03 06:57:31;;;;;;;9.03;3.50;;;;;;;;;;5035315;28;20459;-75
2022/07/03 06:59:57;;;;;;;7.27;3.03;;;;;;;;;;5035218;28;20869;-74
2022/07/03 07:02:23;;;;;;;5.13;3.13;;;;;;;;;;5035203;28;20398;-75
2022/07/03 07:04:49;;;;;;;5.80;2.63;;;;;;;;;;5034871;28;20896;-74
2022/07/03 07:07:15;;;;;;;4.33;2.40;;;;;;;;;;5035185;28;20424;-75
2022/07/03 07:09:41;;;;;;;3.07;2.27;;;;;;;;;;5035006;28;20391;-75
2022/07/03 07:12:07;;;;;;;3.00;2.40;;;;;;;;;;5033525;28;20461;-75
2022/07/03 07:14:33;;;;;;;5.67;2.53;;;;;;;;;;5034428;28;20505;-74
2022/07/03 07:16:59;;;;;;;3.37;2.50;;;;;;;;;;5033835;28;20483;-74
2022/07/03 07:19:25;;;;;;;3.70;2.00;;;;;;;;;;5034762;28;20448;-74
2022/07/03 07:21:51;;;;;;;3.83;1.70;;;;;;;;;;5034887;28;20842;-74
2022/07/03 07:24:17;;;;;;;4.60;2.10;;;;;;;;;;5034335;28;20399;-75
2022/07/03 07:26:43;;;;;;;2.70;1.70;;;;;;;;;;5034493;28;20415;-75
2022/07/03 07:29:09;;;;;;;2.17;1.50;;;;;;;;;;5034852;28;20392;-74
2022/07/03 07:31:35;;;;;;;1.97;1.60;;;;;;;;;;5034390;28;20472;-74
2022/07/03 07:34:04;;;;;;;2.90;1.50;;;;;;;;;;5034328;28;20492;-74
2022/07/03 07:36:30;;;;;;;3.23;1.60;;;;;;;;;;5034271;28;20436;-73
2022/07/03 07:38:56;;;;;;;2.40;1.70;;;;;;;;;;5033055;28;20457;-74
2022/07/03 07:41:22;;;;;;;2.83;1.50;;;;;;;;;;5034543;28;20423;-74
2022/07/03 07:43:48;;;;;;;3.03;1.40;;;;;;;;;;5033821;28;20453;-74
2022/07/03 07:46:14;;;;;;;3.10;1.30;;;;;;;;;;5034045;28;20807;-74
2022/07/03 07:48:40;;;;;;;2.17;1.40;;;;;;;;;;5032628;28;20401;-74
2022/07/03 07:51:06;;;;;;;1.37;1.20;;;;;;;;;;5034056;28;20782;-74
2022/07/03 07:53:32;;;;;;;2.47;1.37;;;;;;;;;;5033797;28;20942;-74
2022/07/03 07:55:58;;;;;;;3.63;1.33;;;;;;;;;;5034121;28;20427;-73
2022/07/03 07:58:24;;;;;;;1.60;0.97;;;;;;;;;;5033944;28;20405;-74
2022/07/03 08:06:19;;;;;;;4.13;1.97;;;;;;;;;;5033832;28;21056;-74
2022/07/03 08:08:45;;;;;;;5.03;1.37;;;;;;;;;;5033724;28;20770;-74
2022/07/03 08:11:11;;;;;;;3.73;1.30;;;;;;;;;;5033817;28;20538;-74
2022/07/03 08:13:37;;;;;;;2.93;1.50;;;;;;;;;;5033443;28;20610;-74
2022/07/03 08:16:03;;;;;;;1.20;1.10;;;;;;;;;;5033760;28;20430;-74
2022/07/03 08:18:29;;;;;;;3.60;1.40;;;;;;;;;;5033567;28;20452;-74
2022/07/03 08:20:55;;;;;;;5.10;1.27;;;;;;;;;;5033408;28;20440;-75
2022/07/03 08:23:21;;;;;;;1.87;1.47;;;;;;;;;;5032045;28;20409;-75
2022/07/03 08:25:47;;;;;;;1.77;1.43;;;;;;;;;;5032062;28;20445;-75
2022/07/03 08:28:13;;;;;;;4.10;1.80;;;;;;;;;;5033421;28;20424;-75
2022/07/03 08:30:39;;;;;;;8.63;1.80;;;;;;;;;;5033360;28;20506;-75
2022/07/03 08:33:05;;;;;;;4.30;1.77;;;;;;;;;;5032729;28;20996;-75
2022/07/03 08:35:31;;;;;;;3.13;1.60;;;;;;;;;;5031813;28;20448;-75
2022/07/03 08:37:57;;;;;;;4.30;1.70;;;;;;;;;;5033402;28;20414;-74
2022/07/03 08:40:23;;;;;;;3.80;1.60;;;;;;;;;;5033171;28;20415;-74
2022/07/03 08:42:50;;;;;;;3.67;2.30;;;;;;;;;;5032083;28;20460;-74
2022/07/03 08:45:18;;;;;;;7.10;1.80;;;;;;;;;;5032893;28;20487;-74
2022/07/03 08:47:44;;;;;;;2.70;1.50;;;;;;;;;;5031960;28;20417;-74
2022/07/03 08:50:14;;;;;;;6.90;1.90;;;;;;;;;;5033133;28;20413;-74
2022/07/03 08:52:41;;;;;;;5.17;1.70;;;;;;;;;;5033081;28;20465;-75
2022/07/03 08:55:08;;;;;;;6.13;1.87;;;;;;;;;;5032574;28;20942;-76
2022/07/03 08:57:36;;;;;;;3.33;1.67;;;;;;;;;;5031741;28;20428;-75
2022/07/03 09:00:04;;;;;;;6.60;1.80;;;;;;;;;;5033030;28;20418;-75
2022/07/03 09:02:31;;;;;;;2.73;1.73;;;;;;;;;;5032876;28;20909;-75
2022/07/03 09:04:58;;;;;;;3.30;1.80;;;;;;;;;;5032381;28;20803;-75
2022/07/03 09:07:25;;;;;;;2.90;2.10;;;;;;;;;;5031375;28;20423;-76
2022/07/03 09:09:51;;;;;;;2.83;1.80;;;;;;;;;;5033145;28;20447;-75
2022/07/03 09:12:18;;;;;;;5.30;2.00;;;;;;;;;;5032562;28;20490;-74
2022/07/03 09:14:44;;;;;;;11.30;2.10;;;;;;;;;;5032412;28;20788;-74
2022/07/03 09:17:10;;;;;;;4.07;2.10;;;;;;;;;;5031232;28;20929;-74
2022/07/03 09:19:46;;;;;;;3.77;2.20;;;;;;;;;;5032545;28;20424;-75
2022/07/03 09:22:25;;;;;;;6.00;2.20;;;;;;;;;;5032581;28;20463;-73
2022/07/03 09:24:52;;;;;;;6.33;1.77;;;;;;;;;;5032250;28;20433;-75
2022/07/03 09:27:19;;;;;;;3.40;1.87;;;;;;;;;;5032469;28;20416;-74
2022/07/03 09:29:52;;;;;;;3.50;2.10;;;;;;;;;;5032611;28;20417;-75
2022/07/03 09:32:18;;;;;;;3.67;2.10;;;;;;;;;;5032586;28;20485;-75
2022/07/03 09:34:45;;;;;;;2.10;1.90;;;;;;;;;;5032419;28;20449;-75
2022/07/03 09:37:12;;;;;;;4.17;2.07;;;;;;;;;;5032647;28;20758;-75
2022/07/03 09:39:39;;;;;;;4.23;2.60;;;;;;;;;;5032651;28;20914;-75
2022/07/03 09:42:11;;;;;;;4.70;1.67;;;;;;;;;;5032397;28;20412;-74
2022/07/03 09:44:40;;;;;;;2.00;1.80;;;;;;;;;;5032196;28;20795;-74
2022/07/03 09:47:06;;;;;;;2.30;1.70;;;;;;;;;;5032590;28;20433;-74
2022/07/03 09:49:46;;;;;;;2.50;1.50;;;;;;;;;;5032237;28;20490;-74
2022/07/03 09:52:28;;;;;;;4.20;2.00;;;;;;;;;;5032293;28;20457;-74
2022/07/03 09:54:54;;;;;;;6.27;1.70;;;;;;;;;;5031925;28;20437;-74
2022/07/03 09:57:20;;;;;;;8.50;2.00;;;;;;;;;;5032594;28;20406;-75
2022/07/03 09:59:46;;;;;;;2.97;1.50;;;;;;;;;;5032203;28;20414;-74
2022/07/03 10:02:12;;;;;;;3.87;2.20;;;;;;;;;;5031156;28;20524;-75
2022/07/03 10:04:38;;;;;;;3.77;1.60;;;;;;;;;;5030606;28;20508;-74
2022/07/03 10:07:04;;;;;;;2.87;1.67;;;;;;;;;;5032222;28;20425;-74
2022/07/03 10:09:31;;;;;;;3.87;1.70;;;;;;;;;;5032447;28;20470;-75
2022/07/03 10:11:58;;;;;;;3.27;1.50;;;;;;;;;;5032081;28;20488;-75
2022/07/03 10:14:25;;;;;;;2.70;1.40;;;;;;;;;;5032090;28;20769;-76
2022/07/03 10:16:52;;;;;;;2.73;1.43;;;;;;;;;;5030924;28;20405;-74
2022/07/03 10:19:21;;;;;;;1.90;1.63;;;;;;;;;;5032091;28;20489;-74
2022/07/03 10:21:52;;;;;;;5.03;1.93;;;;;;;;;;5031946;28;20432;-75
2022/07/03 10:24:18;;;;;;;3.03;1.53;;;;;;;;;;5033323;28;20775;-75
2022/07/03 10:26:45;;;;;;;3.43;1.47;;;;;;;;;;5035709;28;20529;-75
2022/07/03 10:29:15;;;;;;;2.23;1.20;;;;;;;;;;5035808;28;20418;-75
2022/07/03 10:31:41;;;;;;;3.27;1.50;;;;;;;;;;5035524;28;20477;-75
2022/07/03 10:34:08;;;;;;;2.60;1.50;;;;;;;;;;5035319;28;20421;-74
2022/07/03 10:36:37;;;;;;;4.90;1.50;;;;;;;;;;5035668;28;20766;-75
2022/07/03 10:39:05;;;;;;;2.50;1.27;;;;;;;;;;5035761;28;20441;-75
2022/07/03 10:47:04;;;;;;;3.20;1.30;;;;;;;;;;5035931;28;20416;-75
2022/07/03 10:49:31;;;;;;;4.17;1.90;;;;;;;;;;5035430;28;20460;-75
2022/07/03 10:52:01;;;;;;;3.00;1.90;;;;;;;;;;5035421;28;20456;-75
2022/07/03 10:54:28;;;;;;;1.87;1.20;;;;;;;;;;5034882;28;20551;-75
2022/07/03 10:57:00;;;;;;;3.87;1.57;;;;;;;;;;5035367;28;20817;-75
2022/07/03 10:59:32;;;;;;;6.40;1.40;;;;;;;;;;5035220;28;20402;-75
2022/07/03 11:02:16;;;;;;;3.87;1.47;;;;;;;;;;5035194;28;20764;-75
2022/07/03 11:05:03;;;;;;;6.20;1.40;;;;;;;;;;5034717;28;20416;-75
2022/07/03 11:07:29;;;;;;;9.13;1.67;;;;;;;;;;5035017;28;20408;-75
2022/07/03 11:10:12;;;;;;;4.27;1.33;;;;;;;;;;5035033;28;20405;-74
2022/07/03 11:12:56;;;;;;;1.10;0.90;;;;;;;;;;5033542;28;20844;-74
2022/07/03 11:15:37;;;;;;;4.40;1.50;;;;;;;;;;5034910;28;20425;-73
2022/07/03 11:18:06;;;;;;;2.80;1.20;;;;;;;;;;5033435;28;20511;-74
2022/07/03 11:20:37;;;;;;;3.30;1.37;;;;;;;;;;5034745;28;20406;-74
2022/07/03 11:23:24;;;;;;;1.77;1.43;;;;;;;;;;5034596;28;20421;-75
2022/07/03 11:25:51;;;;;;;2.43;1.40;;;;;;;;;;5030629;28;20532;-75
2022/07/03 11:28:37;;;;;;;4.23;1.10;;;;;;;;;;5034583;28;20779;-76
2022/07/03 11:31:24;;;;;;;1.53;1.00;;;;;;;;;;5030650;28;20495;-75
2022/07/03 11:33:56;;;;;;;2.53;1.13;;;;;;;;;;5034399;28;20417;-74
2022/07/03 11:36:22;;;;;;;1.87;1.10;;;;;;;;;;5034133;28;20922;-75
2022/07/03 11:38:48;;;;;;;3.73;1.37;;;;;;;;;;5034408;28;20413;-75
2022/07/03 11:41:15;;;;;;;4.40;1.40;;;;;;;;;;5034660;28;20452;-74
2022/07/03 11:43:48;;;;;;;3.03;1.20;;;;;;;;;;5034043;28;20415;-74
2022/07/03 11:46:20;;;;;;;1.50;1.20;;;;;;;;;;5034298;28;20424;-75
2022/07/03 11:48:46;;;;;;;2.37;1.30;;;;;;;;;;5034163;28;20412;-74
2022/07/03 11:51:13;;;;;;;2.73;1.30;;;;;;;;;;5034218;28;20407;-75
2022/07/03 11:53:39;;;;;;;3.03;1.40;;;;;;;;;;5033793;28;20459;-74
2022/07/03 11:56:08;;;;;;;4.87;1.20;;;;;;;;;;5034049;28;20435;-74
2022/07/03 11:58:53;;;;;;;2.23;0.97;;;;;;;;;;5034006;28;20439;-75
2022/07/03 12:01:22;;;;;;;2.43;1.30;;;;;;;;;;5032831;28;20468;-74
2022/07/03 12:03:52;;;;;;;2.40;1.10;;;;;;;;;;5033705;28;20409;-74
2022/07/03 12:06:18;;;;;;;3.00;1.10;;;;;;;;;;5034053;28;20951;-75
2022/07/03 12:08:47;;;;;;;1.50;1.40;;;;;;;;;;5032557;28;20417;-74
2022/07/03 12:11:14;;;;;;;2.10;1.10;;;;;;;;;;5033915;28;20412;-75
2022/07/03 12:13:40;;;;;;;1.60;1.20;;;;;;;;;;5033552;28;20485;-74
2022/07/03 12:16:06;;;;;;;1.87;1.00;;;;;;;;;;5033909;28;20429;-74
2022/07/03 12:18:42;;;;;;;3.87;1.27;;;;;;;;;;5033645;28;20522;-74
2022/07/03 12:21:09;;;;;;;2.37;1.60;;;;;;;;;;5033857;28;20456;-74
2022/07/03 12:23:45;;;;;;;3.70;1.50;;;;;;;;;;5033369;28;21040;-74
2022/07/03 12:26:11;;;;;;;2.10;1.40;;;;;;;;;;5033698;28;20449;-75
2022/07/03 12:28:38;;;;;;;1.60;1.13;;;;;;;;;;5033227;28;20424;-74
2022/07/03 12:31:04;;;;;;;3.17;1.27;;;;;;;;;;5033225;28;20508;-74
2022/07/03 12:33:34;;;;;;;1.53;1.20;;;;;;;;;;5033048;28;20468;-74
2022/07/03 12:36:04;;;;;;;1.90;0.90;;;;;;;;;;5033409;28;20437;-74
2022/07/03 12:38:30;;;;;;;2.80;1.03;;;;;;;;;;5032019;28;20424;-74
2022/07/03 12:41:15;;;;;;;2.50;0.90;;;;;;;;;;5031865;28;20424;-74
2022/07/03 12:43:42;;;;;;;4.33;1.60;;;;;;;;;;5032995;28;20878;-74
2022/07/03 12:46:24;;;;;;;1.77;1.33;;;;;;;;;;5032874;28;20440;-74
2022/07/03 12:48:57;;;;;;;2.87;1.30;;;;;;;;;;5031707;28;20421;-74
2022/07/03 12:51:41;;;;;;;3.00;1.40;;;;;;;;;;5033119;28;20424;-74
2022/07/03 12:54:07;;;;;;;3.27;1.10;;;;;;;;;;5033057;28;20480;-74
2022/07/03 12:56:33;;;;;;;1.57;1.00;;;;;;;;;;5033082;28;20421;-75
2022/07/03 12:59:17;;;;;;;1.10;0.87;;;;;;;;;;5033225;28;20414;-74
2022/07/03 13:02:00;;;;;;;4.03;1.00;;;;;;;;;;5033073;28;20413;-74
2022/07/03 13:04:33;;;;;;;3.10;1.30;;;;;;;;;;5032762;28;20406;-74
2022/07/03 13:07:01;;;;;;;2.70;1.10;;;;;;;;;;5032897;28;20414;-75
2022/07/03 13:09:27;;;;;;;3.80;1.50;;;;;;;;;;5032845;28;20909;-74
2022/07/03 13:11:53;;;;;;;1.83;1.23;;;;;;;;;;5032945;28;20480;-74
2022/07/03 13:14:19;;;;;;;2.80;1.10;;;;;;;;;;5031062;28;20836;-74
2022/07/03 13:16:46;;;;;;;3.03;1.10;;;;;;;;;;5032691;28;20441;-74
2022/07/03 13:19:14;;;;;;;2.30;1.13;;;;;;;;;;5032589;28;20918;-75
2022/07/03 13:21:40;;;;;;;2.73;1.20;;;;;;;;;;5032653;28;20402;-74
2022/07/03 13:24:06;;;;;;;3.50;1.30;;;;;;;;;;5032309;28;20777;-73
2022/07/03 13:26:33;;;;;;;3.03;1.30;;;;;;;;;;5032468;28;20429;-74
2022/07/03 13:28:59;;;;;;;1.60;1.23;;;;;;;;;;5032346;28;20418;-75
2022/07/03 13:31:25;;;;;;;3.53;1.17;;;;;;;;;;5032122;28;20835;-73
2022/07/03 13:33:51;;;;;;;2.17;1.00;;;;;;;;;;5032427;28;20525;-75
2022/07/03 13:36:17;;;;;;;2.90;1.13;;;;;;;;;;5032351;28;20512;-76
2022/07/03 13:38:44;;;;;;;2.63;1.00;;;;;;;;;;5032360;28;20424;-75
2022/07/03 13:41:10;;;;;;;1.23;0.90;;;;;;;;;;5032573;28;20884;-75
2022/07/03 13:43:36;;;;;;;1.30;0.90;;;;;;;;;;5032195;28;20417;-75
2022/07/03 13:46:02;;;;;;;2.07;1.10;;;;;;;;;;5032454;28;20929;-75
2022/07/03 13:48:29;;;;;;;4.33;0.97;;;;;;;;;;5032275;28;20464;-75
2022/07/03 13:50:54;;;;;;;2.00;0.77;;;;;;;;;;5032452;28;20406;-75
2022/07/03 13:53:20;;;;;;;0.90;0.77;;;;;;;;;;5031966;28;20468;-77
2022/07/03 13:55:47;;;;;;;3.07;1.10;;;;;;;;;;5032330;28;20445;-75
2022/07/03 13:58:13;;;;;;;2.10;1.10;;;;;;;;;;5032350;28;20500;-75
2022/07/03 14:00:39;;;;;;;1.60;0.90;;;;;;;;;;5034828;28;20536;-76
2022/07/03 14:03:05;;;;;;;2.17;1.23;;;;;;;;;;5036087;28;20421;-76
2022/07/03 14:05:31;;;;;;;2.17;1.53;;;;;;;;;;5035918;28;20438;-75
2022/07/03 14:07:57;;;;;;;1.30;1.13;;;;;;;;;;5036134;28;20496;-75
2022/07/03 14:10:25;;;;;;;2.93;1.10;;;;;;;;;;5036206;28;20500;-75
2022/07/03 14:12:51;;;;;;;4.10;1.70;;;;;;;;;;5035792;28;20461;-75
2022/07/03 14:15:17;;;;;;;1.20;0.90;;;;;;;;;;5036232;28;20433;-75
2022/07/03 14:17:43;;;;;;;2.30;1.17;;;;;;;;;;5035938;28;20471;-75
2022/07/03 14:20:10;;;;;;;1.50;1.17;;;;;;;;;;5035890;28;20416;-75
2022/07/03 14:22:36;;;;;;;1.33;1.10;;;;;;;;;;5035870;28;20484;-75
2022/07/03 14:25:02;;;;;;;1.93;1.20;;;;;;;;;;5035388;28;20468;-75
2022/07/03 14:32:57;;;;;;;1.70;1.23;;;;;;;;;;5035308;28;21014;-75
2022/07/03 14:35:23;;;;;;;1.07;0.90;;;;;;;;;;5034311;28;20427;-75
2022/07/03 14:37:50;;;;;;;2.80;1.17;;;;;;;;;;5035422;28;20477;-75
2022/07/03 14:40:16;;;;;;;2.00;1.10;;;;;;;;;;5035645;28;20499;-75
2022/07/03 14:42:42;;;;;;;1.03;0.80;;;;;;;;;;5035784;28;20495;-75
2022/07/03 14:45:08;;;;;;;4.53;1.10;;;;;;;;;;5035245;28;20440;-76
2022/07/03 14:47:34;;;;;;;2.30;1.10;;;;;;;;;;5035389;28;20417;-75
2022/07/03 14:50:00;;;;;;;2.00;1.00;;;;;;;;;;5034450;28;20424;-75
2022/07/03 14:52:27;;;;;;;2.37;1.20;;;;;;;;;;5033960;28;20456;-75
2022/07/03 14:54:56;;;;;;;2.67;1.10;;;;;;;;;;5034829;28;20463;-75
2022/07/03 14:57:27;;;;;;;2.30;1.30;;;;;;;;;;5035371;28;20896;-75
2022/07/03 14:59:56;;;;;;;1.50;1.10;;;;;;;;;;5035148;28;20754;-76
2022/07/03 15:02:23;;;;;;;2.47;1.10;;;;;;;;;;5035231;28;20419;-75
2022/07/03 15:04:49;;;;;;;2.40;0.97;;;;;;;;;;5034657;28;20514;-75
2022/07/03 15:07:17;;;;;;;3.37;1.23;;;;;;;;;;5035009;28;20497;-75